Time;durP1;ratioP1;P1;durP2;ratioP2;P2;SDS_P1;SDS_P2;PMS_P1;PMS_P2;Temp;Humidity;BMP_temperature;BMP_pressure;BME280_temperature;BME280_humidity;BME280_pressure;Samples;Min_cycle;Max_cycle;Signal;HPM_P1;HPM_P2
2022/03/31 00:00:09;;;;;;;3.33;0.88;;;;;;;;;;5072217;28;20048;-60
2022/03/31 00:02:35;;;;;;;4.45;1.17;;;;;;;;;;5070305;28;20029;-60
2022/03/31 00:05:01;;;;;;;1.30;0.80;;;;;;;;;;5072782;28;20483;-60
2022/03/31 00:07:27;;;;;;;4.05;0.85;;;;;;;;;;5071797;28;20044;-61
2022/03/31 00:09:53;;;;;;;3.30;1.08;;;;;;;;;;5073134;28;20453;-60
2022/03/31 00:12:19;;;;;;;1.50;0.70;;;;;;;;;;5071392;28;20090;-59
2022/03/31 00:14:45;;;;;;;3.63;0.90;;;;;;;;;;5071748;28;20068;-60
2022/03/31 00:17:11;;;;;;;2.92;0.90;;;;;;;;;;5071806;28;20114;-61
2022/03/31 00:19:37;;;;;;;1.67;0.90;;;;;;;;;;5072566;28;20032;-61
2022/03/31 00:22:03;;;;;;;2.72;1.05;;;;;;;;;;5071188;28;20032;-60
2022/03/31 00:24:29;;;;;;;2.17;0.80;;;;;;;;;;5072322;28;20032;-61
2022/03/31 00:26:55;;;;;;;2.67;0.70;;;;;;;;;;5071470;28;20051;-60
2022/03/31 00:29:22;;;;;;;2.88;1.33;;;;;;;;;;5074979;28;20472;-61
2022/03/31 00:31:48;;;;;;;3.70;1.20;;;;;;;;;;5069269;28;20052;-60
2022/03/31 00:34:14;;;;;;;3.83;0.85;;;;;;;;;;5070820;28;20037;-60
2022/03/31 00:36:40;;;;;;;3.88;0.88;;;;;;;;;;5071289;28;20079;-60
2022/03/31 00:41:52;;;;;;;1.45;0.63;;;;;;;;;;5069922;28;20123;-61
2022/03/31 00:44:18;;;;;;;2.53;0.80;;;;;;;;;;5072178;28;20395;-61
2022/03/31 00:46:49;;;;;;;2.42;0.80;;;;;;;;;;5069972;28;20071;-61
2022/03/31 00:49:16;;;;;;;1.35;0.90;;;;;;;;;;5070649;28;20390;-60
2022/03/31 00:51:42;;;;;;;4.80;0.90;;;;;;;;;;5076134;28;20060;-60
2022/03/31 00:54:08;;;;;;;5.07;1.50;;;;;;;;;;5073196;28;20363;-60
2022/03/31 00:56:34;;;;;;;3.03;0.90;;;;;;;;;;5074825;28;20051;-60
2022/03/31 00:59:02;;;;;;;4.03;1.00;;;;;;;;;;5071471;28;20490;-60
2022/03/31 01:01:28;;;;;;;1.63;0.77;;;;;;;;;;5074443;28;20032;-60
2022/03/31 01:03:54;;;;;;;3.05;1.45;;;;;;;;;;5072064;28;20060;-60
2022/03/31 01:06:20;;;;;;;3.75;0.90;;;;;;;;;;5072364;28;20386;-60
2022/03/31 01:08:46;;;;;;;3.88;1.60;;;;;;;;;;5073434;28;20040;-60
2022/03/31 01:11:12;;;;;;;7.78;1.10;;;;;;;;;;5075871;28;20059;-60
2022/03/31 01:13:38;;;;;;;5.05;1.30;;;;;;;;;;5075344;28;20082;-60
2022/03/31 01:16:04;;;;;;;3.67;1.20;;;;;;;;;;5071721;28;20032;-60
2022/03/31 01:18:30;;;;;;;3.13;1.00;;;;;;;;;;5069823;28;20439;-61
2022/03/31 01:20:56;;;;;;;1.95;1.10;;;;;;;;;;5068595;28;20047;-60
2022/03/31 01:23:22;;;;;;;3.42;1.27;;;;;;;;;;5071596;28;20037;-61
2022/03/31 01:25:48;;;;;;;3.95;1.65;;;;;;;;;;5070413;28;20115;-61
2022/03/31 01:28:14;;;;;;;2.97;1.00;;;;;;;;;;5071645;28;20502;-61
2022/03/31 01:30:41;;;;;;;4.03;1.13;;;;;;;;;;5068961;28;20132;-60
2022/03/31 01:33:07;;;;;;;5.43;1.38;;;;;;;;;;5070459;28;20474;-60
2022/03/31 01:35:33;;;;;;;2.40;1.27;;;;;;;;;;5069839;28;20032;-59
2022/03/31 01:37:59;;;;;;;3.65;1.33;;;;;;;;;;5069693;28;20109;-60
2022/03/31 01:40:25;;;;;;;2.85;1.20;;;;;;;;;;5072932;28;20043;-60
2022/03/31 01:42:51;;;;;;;3.30;1.10;;;;;;;;;;5070993;28;20120;-61
2022/03/31 01:45:20;;;;;;;5.05;1.63;;;;;;;;;;5067919;28;20059;-60
2022/03/31 01:47:46;;;;;;;3.05;1.00;;;;;;;;;;5070719;28;20101;-61
2022/03/31 01:50:12;;;;;;;3.38;1.10;;;;;;;;;;5068499;28;20051;-61
2022/03/31 01:52:39;;;;;;;2.30;0.88;;;;;;;;;;5074755;28;20037;-61
2022/03/31 01:55:06;;;;;;;2.97;1.00;;;;;;;;;;5070558;28;20123;-60
2022/03/31 01:57:32;;;;;;;2.42;0.90;;;;;;;;;;5073493;28;20123;-60
2022/03/31 02:00:02;;;;;;;5.10;1.00;;;;;;;;;;5070453;28;20182;-60
2022/03/31 02:02:28;;;;;;;5.25;1.30;;;;;;;;;;5069049;28;20036;-60
2022/03/31 02:04:54;;;;;;;3.65;1.02;;;;;;;;;;5068763;28;20127;-60
2022/03/31 02:07:20;;;;;;;1.98;1.08;;;;;;;;;;5073065;28;20449;-60
2022/03/31 02:09:46;;;;;;;5.72;1.00;;;;;;;;;;5070174;28;20043;-60
2022/03/31 02:12:12;;;;;;;2.47;1.05;;;;;;;;;;5071448;28;20434;-61
2022/03/31 02:14:39;;;;;;;5.78;0.98;;;;;;;;;;5072348;28;20128;-61
2022/03/31 02:17:09;;;;;;;2.42;1.00;;;;;;;;;;5070498;28;20058;-61
2022/03/31 02:19:36;;;;;;;2.15;0.88;;;;;;;;;;5070723;28;20149;-61
2022/03/31 02:22:03;;;;;;;2.17;0.90;;;;;;;;;;5068693;28;20045;-60
2022/03/31 02:24:30;;;;;;;3.85;0.80;;;;;;;;;;5070242;28;20037;-61
2022/03/31 02:26:56;;;;;;;2.58;0.80;;;;;;;;;;5072386;28;20062;-61
2022/03/31 02:29:22;;;;;;;3.15;0.90;;;;;;;;;;5069830;28;20115;-61
2022/03/31 02:31:48;;;;;;;3.00;0.90;;;;;;;;;;5069330;28;20498;-61
2022/03/31 02:34:14;;;;;;;4.68;0.90;;;;;;;;;;5076220;28;20410;-61
2022/03/31 02:36:40;;;;;;;1.95;0.82;;;;;;;;;;5070344;28;20084;-60
2022/03/31 02:39:07;;;;;;;3.33;0.98;;;;;;;;;;5069112;28;20044;-60
2022/03/31 02:41:33;;;;;;;3.95;0.90;;;;;;;;;;5073828;28;20127;-61
2022/03/31 02:43:59;;;;;;;2.35;1.08;;;;;;;;;;5070032;28;20032;-59
2022/03/31 02:46:27;;;;;;;4.13;1.02;;;;;;;;;;5069527;28;20032;-60
2022/03/31 02:48:54;;;;;;;7.43;0.93;;;;;;;;;;5070325;28;20506;-60
2022/03/31 02:51:20;;;;;;;5.43;1.00;;;;;;;;;;5068322;28;20159;-61
2022/03/31 02:56:30;;;;;;;6.43;1.42;;;;;;;;;;5068664;28;20045;-60
2022/03/31 02:58:57;;;;;;;3.72;1.25;;;;;;;;;;5069342;28;20037;-61
2022/03/31 03:01:23;;;;;;;3.22;0.85;;;;;;;;;;5069343;28;20083;-60
2022/03/31 03:03:51;;;;;;;4.00;1.25;;;;;;;;;;5068948;28;20045;-60
2022/03/31 03:06:19;;;;;;;1.80;0.90;;;;;;;;;;5069638;28;20048;-60
2022/03/31 03:08:45;;;;;;;3.00;1.00;;;;;;;;;;5068435;28;20040;-60
2022/03/31 03:11:11;;;;;;;2.85;0.90;;;;;;;;;;5070000;28;20040;-61
2022/03/31 03:13:37;;;;;;;5.85;1.25;;;;;;;;;;5067198;28;20105;-60
2022/03/31 03:16:08;;;;;;;2.92;1.10;;;;;;;;;;5069450;28;20059;-60
2022/03/31 03:18:37;;;;;;;7.85;1.63;;;;;;;;;;5067709;28;20045;-61
2022/03/31 03:21:04;;;;;;;2.15;1.00;;;;;;;;;;5074519;28;20064;-61
2022/03/31 03:23:37;;;;;;;2.33;1.10;;;;;;;;;;5068744;28;20075;-61
2022/03/31 03:26:04;;;;;;;2.97;1.27;;;;;;;;;;5064217;28;20068;-60
2022/03/31 03:28:30;;;;;;;5.53;1.10;;;;;;;;;;5069150;28;20033;-61
2022/03/31 03:30:57;;;;;;;6.68;1.63;;;;;;;;;;5071843;28;20083;-60
2022/03/31 03:33:23;;;;;;;2.22;1.52;;;;;;;;;;5067964;28;20036;-61
2022/03/31 03:35:49;;;;;;;4.50;1.52;;;;;;;;;;5069453;28;20120;-61
2022/03/31 03:38:16;;;;;;;3.92;1.77;;;;;;;;;;5068290;28;20090;-61
2022/03/31 03:40:42;;;;;;;5.63;2.05;;;;;;;;;;5068492;28;20041;-60
2022/03/31 03:43:09;;;;;;;4.10;1.75;;;;;;;;;;5068865;28;20040;-59
2022/03/31 03:45:36;;;;;;;5.00;1.80;;;;;;;;;;5068367;28;20071;-62
2022/03/31 03:48:03;;;;;;;3.67;1.40;;;;;;;;;;5069363;28;20044;-61
2022/03/31 03:50:29;;;;;;;4.95;1.50;;;;;;;;;;5067722;28;20036;-61
2022/03/31 03:52:55;;;;;;;7.18;2.00;;;;;;;;;;5071657;28;20097;-60
2022/03/31 03:55:21;;;;;;;6.53;1.70;;;;;;;;;;5068294;28;20076;-60
2022/03/31 03:57:48;;;;;;;5.97;1.80;;;;;;;;;;5075188;28;20044;-59
2022/03/31 04:00:14;;;;;;;5.20;1.85;;;;;;;;;;5070919;28;20039;-60
2022/03/31 04:02:40;;;;;;;5.20;1.75;;;;;;;;;;5075394;28;20225;-60
2022/03/31 04:05:07;;;;;;;5.93;2.40;;;;;;;;;;5071872;28;20041;-61
2022/03/31 04:07:33;;;;;;;4.03;1.85;;;;;;;;;;5070965;28;20052;-63
2022/03/31 04:09:59;;;;;;;3.85;1.85;;;;;;;;;;5069411;28;20028;-61
2022/03/31 04:12:25;;;;;;;5.93;2.58;;;;;;;;;;5072089;28;20378;-60
2022/03/31 04:14:51;;;;;;;3.08;2.15;;;;;;;;;;5072574;28;20044;-61
2022/03/31 04:17:17;;;;;;;3.83;2.13;;;;;;;;;;5072646;28;20215;-60
2022/03/31 04:19:43;;;;;;;7.43;2.88;;;;;;;;;;5070028;28;20040;-60
2022/03/31 04:22:10;;;;;;;5.13;3.00;;;;;;;;;;5072677;28;20445;-61
2022/03/31 04:24:36;;;;;;;8.48;3.33;;;;;;;;;;5070918;28;20403;-60
2022/03/31 04:27:03;;;;;;;7.40;2.78;;;;;;;;;;5071835;28;20110;-60
2022/03/31 04:29:29;;;;;;;5.60;2.95;;;;;;;;;;5071005;28;20105;-61
2022/03/31 04:31:55;;;;;;;3.95;3.42;;;;;;;;;;5070173;28;20036;-61
2022/03/31 04:34:21;;;;;;;5.40;3.70;;;;;;;;;;5075568;28;20036;-60
2022/03/31 04:36:47;;;;;;;6.88;3.80;;;;;;;;;;5072281;28;20049;-61
2022/03/31 04:39:14;;;;;;;4.43;3.33;;;;;;;;;;5074028;28;20052;-61
2022/03/31 04:41:40;;;;;;;4.55;3.80;;;;;;;;;;5071375;28;20044;-60
2022/03/31 04:44:06;;;;;;;4.05;3.65;;;;;;;;;;5074588;28;20093;-61
2022/03/31 04:46:33;;;;;;;5.20;3.83;;;;;;;;;;5072065;28;20037;-60
2022/03/31 04:48:59;;;;;;;4.63;3.75;;;;;;;;;;5071839;28;20036;-61
2022/03/31 04:51:25;;;;;;;5.43;4.03;;;;;;;;;;5071473;28;20041;-60
2022/03/31 04:53:51;;;;;;;4.95;3.63;;;;;;;;;;5070765;28;20144;-60
2022/03/31 04:56:18;;;;;;;4.03;3.67;;;;;;;;;;5068903;28;20033;-60
2022/03/31 04:58:45;;;;;;;5.38;3.83;;;;;;;;;;5071609;28;20086;-60
2022/03/31 05:01:11;;;;;;;5.18;4.32;;;;;;;;;;5071223;28;20039;-61
2022/03/31 05:03:37;;;;;;;4.65;4.15;;;;;;;;;;5072116;28;20043;-60
2022/03/31 05:06:04;;;;;;;4.57;4.10;;;;;;;;;;5071732;28;20067;-60
2022/03/31 05:08:30;;;;;;;4.13;3.53;;;;;;;;;;5071922;28;20056;-60
2022/03/31 05:10:56;;;;;;;4.20;3.53;;;;;;;;;;5071320;28;20133;-63
2022/03/31 05:13:22;;;;;;;4.32;3.83;;;;;;;;;;5071605;28;20087;-61
2022/03/31 05:15:48;;;;;;;4.90;3.65;;;;;;;;;;5071406;28;20499;-60
2022/03/31 05:18:15;;;;;;;5.47;3.83;;;;;;;;;;5070080;28;20046;-60
2022/03/31 05:20:42;;;;;;;4.13;3.70;;;;;;;;;;5071409;28;20036;-60
2022/03/31 05:23:08;;;;;;;4.70;3.50;;;;;;;;;;5069975;28;20044;-60
2022/03/31 05:25:34;;;;;;;4.50;4.07;;;;;;;;;;5069897;28;20037;-60
2022/03/31 05:28:00;;;;;;;4.18;3.78;;;;;;;;;;5069008;28;20055;-61
2022/03/31 05:30:27;;;;;;;4.97;3.33;;;;;;;;;;5069817;28;20072;-60
2022/03/31 05:32:53;;;;;;;3.78;3.47;;;;;;;;;;5069220;28;20044;-64
2022/03/31 05:35:20;;;;;;;5.22;3.42;;;;;;;;;;5070928;28;20051;-61
2022/03/31 05:37:46;;;;;;;3.78;3.25;;;;;;;;;;5071101;28;20589;-60
2022/03/31 05:40:13;;;;;;;6.88;3.70;;;;;;;;;;5069330;28;20077;-61
2022/03/31 05:42:40;;;;;;;3.55;3.25;;;;;;;;;;5072001;28;20123;-61
2022/03/31 05:45:07;;;;;;;3.83;3.53;;;;;;;;;;5071028;28;20044;-61
2022/03/31 05:47:33;;;;;;;3.42;3.13;;;;;;;;;;5070969;28;20086;-62
2022/03/31 05:49:59;;;;;;;3.80;3.40;;;;;;;;;;5070184;28;20047;-60
2022/03/31 05:52:25;;;;;;;5.40;3.55;;;;;;;;;;5069255;28;20048;-62
2022/03/31 05:54:51;;;;;;;3.45;3.15;;;;;;;;;;5070871;28;20054;-60
2022/03/31 05:57:17;;;;;;;3.55;3.25;;;;;;;;;;5062897;28;20084;-60
2022/03/31 05:59:43;;;;;;;3.80;3.40;;;;;;;;;;5066237;28;20059;-61
2022/03/31 06:02:12;;;;;;;3.47;3.15;;;;;;;;;;5058804;28;20036;-62
2022/03/31 06:04:38;;;;;;;3.42;3.10;;;;;;;;;;5067112;28;20043;-63
2022/03/31 06:07:05;;;;;;;3.92;3.50;;;;;;;;;;5069958;28;20471;-62
2022/03/31 06:09:31;;;;;;;4.57;3.88;;;;;;;;;;5072431;28;20412;-62
2022/03/31 06:11:57;;;;;;;4.13;3.35;;;;;;;;;;5070927;28;20048;-62
2022/03/31 06:14:23;;;;;;;4.05;3.65;;;;;;;;;;5071246;28;20044;-63
2022/03/31 06:16:49;;;;;;;3.70;3.25;;;;;;;;;;5070810;28;20040;-63
2022/03/31 06:19:15;;;;;;;4.07;3.70;;;;;;;;;;5070411;28;20142;-63
2022/03/31 06:21:42;;;;;;;5.22;4.20;;;;;;;;;;5070743;28;20032;-63
2022/03/31 06:24:08;;;;;;;4.50;4.10;;;;;;;;;;5071235;28;20044;-62
2022/03/31 06:26:35;;;;;;;6.32;4.90;;;;;;;;;;5070905;28;20466;-63
2022/03/31 06:29:01;;;;;;;5.45;4.78;;;;;;;;;;5070944;28;20039;-62
2022/03/31 06:31:27;;;;;;;5.78;5.22;;;;;;;;;;5070827;28;20041;-62
2022/03/31 06:33:53;;;;;;;5.50;5.00;;;;;;;;;;5070853;28;20039;-63
2022/03/31 06:36:20;;;;;;;6.32;5.30;;;;;;;;;;5070672;28;20498;-63
2022/03/31 06:38:47;;;;;;;6.38;5.47;;;;;;;;;;5070375;28;20479;-63
2022/03/31 06:41:18;;;;;;;5.90;5.20;;;;;;;;;;5070973;28;20047;-62
2022/03/31 06:43:45;;;;;;;5.78;5.18;;;;;;;;;;5070628;28;20491;-62
2022/03/31 06:46:12;;;;;;;6.50;5.43;;;;;;;;;;5070894;28;20082;-62
2022/03/31 06:48:39;;;;;;;5.10;4.60;;;;;;;;;;5070445;28;20037;-62
2022/03/31 06:51:08;;;;;;;5.63;5.03;;;;;;;;;;5069291;28;20182;-62
2022/03/31 06:53:36;;;;;;;6.05;4.90;;;;;;;;;;5070757;28;20040;-63
2022/03/31 06:56:03;;;;;;;5.50;4.85;;;;;;;;;;5070548;28;20051;-62
2022/03/31 06:58:30;;;;;;;5.68;5.18;;;;;;;;;;5070750;28;20048;-62
2022/03/31 07:00:56;;;;;;;5.40;4.88;;;;;;;;;;5070598;28;20083;-62
2022/03/31 07:03:22;;;;;;;5.43;4.85;;;;;;;;;;5070524;28;20095;-63
2022/03/31 07:05:49;;;;;;;5.55;5.05;;;;;;;;;;5070168;28;20052;-62
2022/03/31 07:08:15;;;;;;;5.30;4.80;;;;;;;;;;5070479;28;20040;-63
2022/03/31 07:10:41;;;;;;;5.88;5.28;;;;;;;;;;5070338;28;20170;-62
2022/03/31 07:13:07;;;;;;;5.65;5.10;;;;;;;;;;5069367;28;20055;-63
2022/03/31 07:15:33;;;;;;;5.20;4.75;;;;;;;;;;5070296;28;20036;-62
2022/03/31 07:18:03;;;;;;;5.93;5.32;;;;;;;;;;5070647;28;20040;-62
2022/03/31 07:20:30;;;;;;;5.72;5.13;;;;;;;;;;5070378;28;20111;-62
2022/03/31 07:22:56;;;;;;;5.25;4.75;;;;;;;;;;5070187;28;20043;-62
2022/03/31 07:25:22;;;;;;;5.45;4.95;;;;;;;;;;5070363;28;20395;-62
2022/03/31 07:27:48;;;;;;;5.30;4.85;;;;;;;;;;5070039;28;20040;-63
2022/03/31 07:30:16;;;;;;;5.15;4.65;;;;;;;;;;5071616;28;20548;-63
2022/03/31 07:32:58;;;;;;;5.30;4.80;;;;;;;;;;5073994;28;20111;-62
2022/03/31 07:35:26;;;;;;;5.72;4.30;;;;;;;;;;5074251;28;20102;-62
2022/03/31 07:37:53;;;;;;;5.22;4.72;;;;;;;;;;5073626;28;20057;-62
2022/03/31 07:40:20;;;;;;;4.97;4.47;;;;;;;;;;5073982;28;20120;-63
2022/03/31 07:42:46;;;;;;;5.28;4.78;;;;;;;;;;5073791;28;20040;-62
2022/03/31 07:45:12;;;;;;;4.57;4.18;;;;;;;;;;5073583;28;20036;-62
2022/03/31 07:47:39;;;;;;;5.20;4.70;;;;;;;;;;5074057;28;20556;-62
2022/03/31 07:50:06;;;;;;;5.22;4.72;;;;;;;;;;5073701;28;20048;-63
2022/03/31 07:52:32;;;;;;;4.40;3.85;;;;;;;;;;5073820;28;20036;-62
2022/03/31 07:54:58;;;;;;;4.60;4.20;;;;;;;;;;5073571;28;20051;-62
2022/03/31 07:57:24;;;;;;;4.60;4.20;;;;;;;;;;5073606;28;20033;-63
2022/03/31 07:59:50;;;;;;;4.85;4.45;;;;;;;;;;5073525;28;20098;-62
2022/03/31 08:02:16;;;;;;;4.68;4.28;;;;;;;;;;5073461;28;20040;-62
2022/03/31 08:04:43;;;;;;;4.70;4.30;;;;;;;;;;5073702;28;20444;-63
2022/03/31 08:07:09;;;;;;;4.85;4.35;;;;;;;;;;5073277;28;20033;-62
2022/03/31 08:09:35;;;;;;;5.30;4.80;;;;;;;;;;5073393;28;20161;-62
2022/03/31 08:12:01;;;;;;;4.88;4.47;;;;;;;;;;5071975;28;20040;-62
2022/03/31 08:14:27;;;;;;;5.05;4.55;;;;;;;;;;5073418;28;20040;-63
2022/03/31 08:16:54;;;;;;;5.30;4.70;;;;;;;;;;5073207;28;20048;-63
2022/03/31 08:19:20;;;;;;;5.43;4.93;;;;;;;;;;5072377;28;20037;-63
2022/03/31 08:21:47;;;;;;;5.38;4.72;;;;;;;;;;5073315;28;20487;-63
2022/03/31 08:24:13;;;;;;;5.20;4.70;;;;;;;;;;5073328;28;20039;-62
2022/03/31 08:26:40;;;;;;;5.78;4.28;;;;;;;;;;5073119;28;20064;-62
2022/03/31 08:29:07;;;;;;;5.05;4.38;;;;;;;;;;5072658;28;20044;-62
2022/03/31 08:31:34;;;;;;;6.45;5.30;;;;;;;;;;5073231;28;20035;-63
2022/03/31 08:34:00;;;;;;;5.03;4.57;;;;;;;;;;5072794;28;20043;-62
2022/03/31 08:36:26;;;;;;;5.63;5.13;;;;;;;;;;5072696;28;20154;-63
2022/03/31 08:38:52;;;;;;;6.22;5.15;;;;;;;;;;5072820;28;20090;-63
2022/03/31 08:41:19;;;;;;;6.03;5.10;;;;;;;;;;5072286;28;20436;-63
2022/03/31 08:43:45;;;;;;;6.13;5.10;;;;;;;;;;5072522;28;20090;-63
2022/03/31 08:46:11;;;;;;;5.38;4.88;;;;;;;;;;5072713;28;20471;-62
2022/03/31 08:48:38;;;;;;;5.68;5.07;;;;;;;;;;5072977;28;20123;-62
2022/03/31 08:51:04;;;;;;;5.53;5.03;;;;;;;;;;5072551;28;20479;-63
2022/03/31 08:53:31;;;;;;;5.28;4.78;;;;;;;;;;5072686;28;20040;-63
2022/03/31 08:55:57;;;;;;;5.50;5.00;;;;;;;;;;5071239;28;20379;-62
2022/03/31 08:58:23;;;;;;;4.75;4.35;;;;;;;;;;5072173;28;20120;-62
2022/03/31 09:00:49;;;;;;;6.05;5.07;;;;;;;;;;5071509;28;20044;-63
2022/03/31 09:03:16;;;;;;;5.40;4.90;;;;;;;;;;5072482;28;20051;-63
2022/03/31 09:05:49;;;;;;;5.50;4.55;;;;;;;;;;5072575;28;20036;-63
2022/03/31 09:08:16;;;;;;;4.80;4.32;;;;;;;;;;5071057;28;20052;-63
2022/03/31 09:10:49;;;;;;;5.18;4.68;;;;;;;;;;5072353;28;20044;-62
2022/03/31 09:13:21;;;;;;;4.70;4.30;;;;;;;;;;5072199;28;20106;-62
2022/03/31 09:15:49;;;;;;;4.93;4.38;;;;;;;;;;5072563;28;20032;-63
2022/03/31 09:18:17;;;;;;;5.47;4.68;;;;;;;;;;5071962;28;20044;-63
2022/03/31 09:20:44;;;;;;;4.55;4.15;;;;;;;;;;5072115;28;20085;-63
2022/03/31 09:23:17;;;;;;;4.43;4.03;;;;;;;;;;5071867;28;20036;-63
2022/03/31 09:25:44;;;;;;;4.55;4.15;;;;;;;;;;5066208;28;20062;-62
2022/03/31 09:28:18;;;;;;;4.20;3.80;;;;;;;;;;5072013;28;20051;-63
2022/03/31 09:30:45;;;;;;;4.30;3.90;;;;;;;;;;5070754;28;20082;-63
2022/03/31 09:33:11;;;;;;;3.95;3.40;;;;;;;;;;5071843;28;20048;-63
2022/03/31 09:35:37;;;;;;;3.80;3.50;;;;;;;;;;5072566;28;20514;-63
2022/03/31 09:38:13;;;;;;;4.68;3.58;;;;;;;;;;5071267;28;20064;-63
2022/03/31 09:40:39;;;;;;;4.22;3.83;;;;;;;;;;5071826;28;20481;-63
2022/03/31 09:43:05;;;;;;;3.65;3.35;;;;;;;;;;5072095;28;20047;-63
2022/03/31 09:45:41;;;;;;;3.65;3.35;;;;;;;;;;5071486;28;20141;-62
2022/03/31 09:48:16;;;;;;;3.40;3.10;;;;;;;;;;5071518;28;20123;-63
2022/03/31 09:50:43;;;;;;;2.83;2.63;;;;;;;;;;5070255;28;20163;-63
2022/03/31 09:53:09;;;;;;;3.28;2.97;;;;;;;;;;5071103;28;20441;-62
2022/03/31 09:55:35;;;;;;;3.00;2.70;;;;;;;;;;5071231;28;20041;-62
2022/03/31 09:58:02;;;;;;;3.00;2.80;;;;;;;;;;5071438;28;20051;-62
2022/03/31 10:00:28;;;;;;;5.13;2.65;;;;;;;;;;5071058;28;20032;-63
2022/03/31 10:02:55;;;;;;;2.65;2.45;;;;;;;;;;5071247;28;20040;-63
2022/03/31 10:05:21;;;;;;;2.45;2.25;;;;;;;;;;5071271;28;20033;-63
2022/03/31 10:07:50;;;;;;;2.28;2.00;;;;;;;;;;5071133;28;20062;-63
2022/03/31 10:10:16;;;;;;;2.30;2.10;;;;;;;;;;5071227;28;20451;-62
2022/03/31 10:12:44;;;;;;;3.50;2.20;;;;;;;;;;5071233;28;20036;-62
2022/03/31 10:15:15;;;;;;;3.05;2.10;;;;;;;;;;5071330;28;20513;-63
2022/03/31 10:17:42;;;;;;;2.00;1.85;;;;;;;;;;5070726;28;20040;-62
2022/03/31 10:20:12;;;;;;;2.70;1.90;;;;;;;;;;5071173;28;20089;-63
2022/03/31 10:25:34;;;;;;;2.10;1.83;;;;;;;;;;5070815;28;20123;-63
2022/03/31 10:28:07;;;;;;;2.05;1.85;;;;;;;;;;5070999;28;20036;-61
2022/03/31 10:30:33;;;;;;;1.92;1.80;;;;;;;;;;5070989;28;20045;-61
2022/03/31 10:33:04;;;;;;;2.30;2.10;;;;;;;;;;5071005;28;20036;-61
2022/03/31 10:35:31;;;;;;;2.65;2.00;;;;;;;;;;5070646;28;20040;-60
2022/03/31 10:37:58;;;;;;;2.65;2.45;;;;;;;;;;5070732;28;20049;-61
2022/03/31 10:40:34;;;;;;;2.28;2.08;;;;;;;;;;5070511;28;20087;-61
2022/03/31 10:43:00;;;;;;;2.50;2.30;;;;;;;;;;5070915;28;20048;-63
2022/03/31 10:45:40;;;;;;;2.60;2.20;;;;;;;;;;5070493;28;20048;-62
2022/03/31 10:48:20;;;;;;;2.38;2.17;;;;;;;;;;5070825;28;20048;-62
2022/03/31 10:50:48;;;;;;;2.05;1.85;;;;;;;;;;5070276;28;20040;-61
2022/03/31 10:53:14;;;;;;;2.20;2.00;;;;;;;;;;5069318;28;20049;-61
2022/03/31 10:55:48;;;;;;;2.25;2.05;;;;;;;;;;5070608;28;20177;-61
2022/03/31 10:58:22;;;;;;;2.00;1.80;;;;;;;;;;5070550;28;20113;-61
2022/03/31 11:00:49;;;;;;;1.95;1.85;;;;;;;;;;5070289;28;20039;-61
2022/03/31 11:03:19;;;;;;;2.22;2.03;;;;;;;;;;5070465;28;20036;-61
2022/03/31 11:05:45;;;;;;;2.60;2.17;;;;;;;;;;5072301;28;20467;-62
2022/03/31 11:08:17;;;;;;;2.13;1.92;;;;;;;;;;5074887;28;20119;-62
2022/03/31 11:10:44;;;;;;;2.22;2.08;;;;;;;;;;5074546;28;20036;-61
2022/03/31 11:13:10;;;;;;;2.40;2.20;;;;;;;;;;5074747;28;20036;-62
2022/03/31 11:15:36;;;;;;;2.65;2.15;;;;;;;;;;5074346;28;20040;-61
2022/03/31 11:18:03;;;;;;;2.50;2.20;;;;;;;;;;5074237;28;20043;-62
2022/03/31 11:20:29;;;;;;;3.47;2.53;;;;;;;;;;5074425;28;20503;-62
2022/03/31 11:22:56;;;;;;;2.50;2.15;;;;;;;;;;5074389;28;20546;-62
2022/03/31 11:25:23;;;;;;;2.50;2.15;;;;;;;;;;5074282;28;20086;-62
2022/03/31 11:27:49;;;;;;;2.28;2.08;;;;;;;;;;5073939;28;20041;-61
2022/03/31 11:30:15;;;;;;;3.25;2.58;;;;;;;;;;5074414;28;20036;-61
2022/03/31 11:32:42;;;;;;;2.60;2.40;;;;;;;;;;5073966;28;20037;-62
2022/03/31 11:35:17;;;;;;;2.38;2.17;;;;;;;;;;5074290;28;20055;-62
2022/03/31 11:37:54;;;;;;;2.38;2.17;;;;;;;;;;5073845;28;20128;-62
2022/03/31 11:40:20;;;;;;;2.25;2.05;;;;;;;;;;5074139;28;20063;-61
2022/03/31 11:42:46;;;;;;;2.42;2.15;;;;;;;;;;5073807;28;20071;-62
2022/03/31 11:45:22;;;;;;;2.38;2.17;;;;;;;;;;5073988;28;20086;-62
2022/03/31 11:48:02;;;;;;;2.25;1.95;;;;;;;;;;5072586;28;20041;-62
2022/03/31 11:50:29;;;;;;;2.15;1.95;;;;;;;;;;5073781;28;20037;-62
2022/03/31 11:52:55;;;;;;;2.15;1.95;;;;;;;;;;5073852;28;20032;-62
2022/03/31 11:55:22;;;;;;;2.17;1.98;;;;;;;;;;5073751;28;20119;-61
2022/03/31 11:57:55;;;;;;;2.05;1.95;;;;;;;;;;5072260;28;20064;-62
2022/03/31 12:00:22;;;;;;;2.10;1.90;;;;;;;;;;5073604;28;20089;-62
2022/03/31 12:02:59;;;;;;;2.25;2.03;;;;;;;;;;5073380;28;20116;-62
2022/03/31 12:05:25;;;;;;;2.13;1.92;;;;;;;;;;5072419;28;20028;-62
2022/03/31 12:07:52;;;;;;;1.98;1.88;;;;;;;;;;5073292;28;20040;-62
2022/03/31 12:10:18;;;;;;;2.20;2.00;;;;;;;;;;5073983;28;20391;-62
2022/03/31 12:12:52;;;;;;;2.30;2.05;;;;;;;;;;5072384;28;20053;-61
2022/03/31 12:15:22;;;;;;;2.80;2.10;;;;;;;;;;5073575;28;20068;-62
2022/03/31 12:17:58;;;;;;;2.67;2.40;;;;;;;;;;5072255;28;20041;-61
2022/03/31 12:20:25;;;;;;;2.65;2.30;;;;;;;;;;5073227;28;20032;-62
2022/03/31 12:22:51;;;;;;;2.72;2.53;;;;;;;;;;5073299;28;20076;-62
2022/03/31 12:25:47;;;;;;;2.85;2.55;;;;;;;;;;5071869;28;20115;-62
2022/03/31 12:28:13;;;;;;;3.38;3.08;;;;;;;;;;5030536;28;20559;-61
2022/03/31 12:30:43;;;;;;;3.25;2.95;;;;;;;;;;5030893;28;20122;-62
2022/03/31 12:33:21;;;;;;;3.92;3.38;;;;;;;;;;5030575;28;20067;-61
2022/03/31 12:35:50;;;;;;;3.45;3.15;;;;;;;;;;5030975;28;20037;-62
2022/03/31 12:38:17;;;;;;;3.75;3.42;;;;;;;;;;5030459;28;20053;-62
2022/03/31 12:40:43;;;;;;;3.60;3.25;;;;;;;;;;5030760;28;20065;-61
2022/03/31 12:43:10;;;;;;;4.05;3.60;;;;;;;;;;5030584;28;20462;-61
2022/03/31 12:45:36;;;;;;;4.35;3.20;;;;;;;;;;5030487;28;20045;-62
2022/03/31 12:48:09;;;;;;;3.88;3.47;;;;;;;;;;5030282;28;20060;-61
2022/03/31 12:50:38;;;;;;;4.03;3.58;;;;;;;;;;5030610;28;20034;-62
2022/03/31 12:53:05;;;;;;;3.75;3.30;;;;;;;;;;5030206;28;20045;-61
2022/03/31 12:55:32;;;;;;;3.78;3.47;;;;;;;;;;5030395;28;20041;-62
2022/03/31 12:58:02;;;;;;;3.50;3.20;;;;;;;;;;5030226;28;20183;-62
2022/03/31 13:00:29;;;;;;;5.53;3.78;;;;;;;;;;5030336;28;20476;-61
2022/03/31 13:02:59;;;;;;;3.70;3.40;;;;;;;;;;5030265;28;20449;-62
2022/03/31 13:05:25;;;;;;;3.53;3.22;;;;;;;;;;5065912;28;20052;-62
2022/03/31 13:07:53;;;;;;;4.07;3.60;;;;;;;;;;5072337;28;20048;-62
2022/03/31 13:10:20;;;;;;;4.05;3.65;;;;;;;;;;5072309;28;20398;-61
2022/03/31 13:12:46;;;;;;;4.13;3.72;;;;;;;;;;5072359;28;20040;-62
2022/03/31 13:15:13;;;;;;;3.80;3.42;;;;;;;;;;5072047;28;20127;-62
2022/03/31 13:17:42;;;;;;;4.63;3.90;;;;;;;;;;5072356;28;20123;-61
2022/03/31 13:20:10;;;;;;;4.10;3.70;;;;;;;;;;5070887;28;20040;-61
2022/03/31 13:22:36;;;;;;;4.03;3.63;;;;;;;;;;5072137;28;20056;-61
2022/03/31 13:25:02;;;;;;;3.90;3.50;;;;;;;;;;5071923;28;20047;-62
2022/03/31 13:27:29;;;;;;;4.75;3.80;;;;;;;;;;5071594;28;20048;-62
2022/03/31 13:29:56;;;;;;;4.13;3.55;;;;;;;;;;5072064;28;20044;-62
2022/03/31 13:32:22;;;;;;;4.80;4.40;;;;;;;;;;5071937;28;20402;-62
2022/03/31 13:34:48;;;;;;;3.88;3.47;;;;;;;;;;5070879;28;20040;-62
2022/03/31 13:37:19;;;;;;;4.00;3.50;;;;;;;;;;5071305;28;20139;-62
2022/03/31 13:39:45;;;;;;;4.75;3.92;;;;;;;;;;5071598;28;20094;-61
2022/03/31 13:42:12;;;;;;;4.55;4.15;;;;;;;;;;5071815;28;20043;-62
2022/03/31 13:44:39;;;;;;;5.07;4.57;;;;;;;;;;5071658;28;20036;-62
2022/03/31 13:47:05;;;;;;;5.00;4.50;;;;;;;;;;5071683;28;20493;-62
2022/03/31 13:49:32;;;;;;;5.47;4.40;;;;;;;;;;5071300;28;20102;-61
2022/03/31 13:51:58;;;;;;;5.07;4.57;;;;;;;;;;5071495;28;20044;-61
2022/03/31 13:54:25;;;;;;;5.97;5.30;;;;;;;;;;5071140;28;20043;-61
2022/03/31 13:56:51;;;;;;;6.72;5.95;;;;;;;;;;5071635;28;20506;-62
2022/03/31 14:02:04;;;;;;;7.82;7.03;;;;;;;;;;5071398;28;20127;-61
2022/03/31 14:04:30;;;;;;;10.15;7.70;;;;;;;;;;5071081;28;20037;-62
2022/03/31 14:06:57;;;;;;;9.00;7.93;;;;;;;;;;5071151;28;20078;-62
2022/03/31 14:09:24;;;;;;;10.93;9.18;;;;;;;;;;5071068;28;20037;-61
2022/03/31 14:11:50;;;;;;;12.32;9.63;;;;;;;;;;5071289;28;20037;-61
2022/03/31 14:14:18;;;;;;;13.32;11.00;;;;;;;;;;5071163;28;20040;-62
2022/03/31 14:16:47;;;;;;;15.63;12.07;;;;;;;;;;5071122;28;20040;-62
2022/03/31 14:19:13;;;;;;;17.38;13.68;;;;;;;;;;5070004;28;20049;-61
2022/03/31 14:21:41;;;;;;;14.77;12.18;;;;;;;;;;5071094;28;20429;-62
2022/03/31 14:24:08;;;;;;;15.35;12.40;;;;;;;;;;5071128;28;20140;-62
2022/03/31 14:26:35;;;;;;;17.60;12.52;;;;;;;;;;5070831;28;20039;-61
2022/03/31 14:29:01;;;;;;;15.90;11.88;;;;;;;;;;5070867;28;20051;-61
2022/03/31 14:31:27;;;;;;;17.25;11.68;;;;;;;;;;5070613;28;20049;-61
2022/03/31 14:33:54;;;;;;;16.02;12.65;;;;;;;;;;5070925;28;20098;-62
2022/03/31 14:36:21;;;;;;;15.15;11.98;;;;;;;;;;5070968;28;20445;-61
2022/03/31 14:38:47;;;;;;;16.48;13.13;;;;;;;;;;5070388;28;20106;-62
2022/03/31 14:41:14;;;;;;;16.55;12.00;;;;;;;;;;5068841;28;20520;-62
2022/03/31 14:43:41;;;;;;;18.58;13.30;;;;;;;;;;5069489;28;20128;-61
2022/03/31 14:46:08;;;;;;;16.65;12.20;;;;;;;;;;5070820;28;20482;-61
2022/03/31 14:48:34;;;;;;;16.27;12.43;;;;;;;;;;5070333;28;20048;-62
2022/03/31 14:51:01;;;;;;;14.93;12.55;;;;;;;;;;5070779;28;20036;-62